Time;durP1;ratioP1;P1;durP2;ratioP2;P2;SDS_P1;SDS_P2;PMS_P1;PMS_P2;Temp;Humidity;BMP_temperature;BMP_pressure;BME280_temperature;BME280_humidity;BME280_pressure;Samples;Min_cycle;Max_cycle;Signal;HPM_P1;HPM_P2
2021/06/02 00:01:53;;;;;;;2.58;2.35;;;;;;;20.84;42.42;101422.28;5052267;28;20045;-62
2021/06/02 00:04:24;;;;;;;4.68;2.40;;;;;;;20.82;42.32;101418.09;5052172;28;20076;-62
2021/06/02 00:06:55;;;;;;;3.83;2.42;;;;;;;20.80;42.14;101409.38;5052145;28;20045;-62
2021/06/02 00:09:22;;;;;;;3.10;2.22;;;;;;;20.78;42.38;101406.84;5052107;28;20483;-62
2021/06/02 00:11:50;;;;;;;2.50;2.30;;;;;;;20.75;41.94;101403.59;5052185;28;20049;-62
2021/06/02 00:14:18;;;;;;;3.38;2.30;;;;;;;20.73;41.83;101397.56;5052445;28;20049;-62
2021/06/02 00:16:45;;;;;;;3.33;2.50;;;;;;;20.71;42.16;101389.72;5033774;28;20495;-74
2021/06/02 00:19:12;;;;;;;3.78;2.17;;;;;;;20.68;41.90;101401.47;5032340;28;20056;-62
2021/06/02 00:21:40;;;;;;;2.63;2.35;;;;;;;20.65;41.89;101401.72;5032089;28;20053;-62
2021/06/02 00:24:07;;;;;;;2.83;2.50;;;;;;;20.64;41.67;101399.22;5031879;28;20045;-62
2021/06/02 00:26:34;;;;;;;2.58;2.35;;;;;;;20.60;41.80;101395.97;5032014;28;20455;-63
2021/06/02 00:29:07;;;;;;;2.55;2.20;;;;;;;20.58;41.97;101400.59;5032054;28;20045;-63
2021/06/02 00:31:37;;;;;;;5.88;2.53;;;;;;;20.57;41.62;101401.59;5032200;28;20454;-62
2021/06/02 00:34:05;;;;;;;2.63;2.42;;;;;;;20.56;41.55;101405.22;5032232;28;20045;-62
2021/06/02 00:36:33;;;;;;;3.17;2.47;;;;;;;20.54;41.61;101399.19;5032170;28;20076;-62
2021/06/02 00:39:00;;;;;;;2.30;2.10;;;;;;;20.52;41.77;101395.81;5032120;28;20045;-62
2021/06/02 00:41:29;;;;;;;3.03;2.45;;;;;;;20.49;41.69;101398.75;5031996;28;20075;-62
2021/06/02 00:43:56;;;;;;;7.80;3.50;;;;;;;20.47;41.83;101398.88;5031874;28;20067;-62
2021/06/02 00:46:26;;;;;;;4.47;2.55;;;;;;;20.45;41.53;101410.66;5031880;28;20050;-62
2021/06/02 00:48:53;;;;;;;3.80;2.53;;;;;;;20.42;41.48;101409.13;5031079;28;20115;-62
2021/06/02 00:51:21;;;;;;;5.50;2.40;;;;;;;20.39;42.01;101412.91;5031955;28;20076;-62
2021/06/02 00:53:50;;;;;;;3.33;2.10;;;;;;;20.37;42.10;101403.34;5031822;28;20041;-62
2021/06/02 00:56:22;;;;;;;3.45;2.40;;;;;;;20.33;41.90;101401.94;5031979;28;20048;-75
2021/06/02 00:58:51;;;;;;;3.25;2.95;;;;;;;20.31;42.06;101404.72;5031833;28;20104;-63
2021/06/02 01:01:18;;;;;;;2.80;2.50;;;;;;;20.28;42.48;101406.78;5031809;28;20553;-63
2021/06/02 01:03:45;;;;;;;4.00;3.13;;;;;;;20.27;42.47;101405.13;5031808;28;20045;-62
2021/06/02 01:06:12;;;;;;;4.63;3.17;;;;;;;20.22;42.64;101406.34;5031429;28;20416;-62
2021/06/02 01:08:43;;;;;;;4.88;3.17;;;;;;;20.20;42.96;101408.31;5031654;28;20463;-62
2021/06/02 01:11:10;;;;;;;4.28;3.13;;;;;;;20.16;43.19;101409.59;5031646;28;20504;-65
2021/06/02 01:13:41;;;;;;;6.50;3.03;;;;;;;20.14;43.58;101405.38;5031668;28;20072;-62
2021/06/02 01:16:08;;;;;;;4.90;3.55;;;;;;;20.10;43.97;101406.59;5031827;28;20050;-62
2021/06/02 01:18:35;;;;;;;5.22;3.80;;;;;;;20.07;43.88;101410.34;5031673;28;20045;-62
2021/06/02 01:21:09;;;;;;;6.28;3.03;;;;;;;20.06;43.82;101406.88;5031590;28;20045;-72
2021/06/02 01:23:37;;;;;;;4.70;3.25;;;;;;;20.06;43.79;101408.66;5031634;28;20045;-62
2021/06/02 01:26:04;;;;;;;4.50;3.15;;;;;;;20.05;43.58;101410.50;5031595;28;20057;-74
2021/06/02 01:28:30;;;;;;;3.50;3.20;;;;;;;20.05;43.24;101409.66;5031527;28;20052;-62
2021/06/02 01:30:57;;;;;;;7.38;3.22;;;;;;;20.06;43.05;101408.66;5031453;28;20054;-62
2021/06/02 01:33:56;;;;;;;4.63;2.83;;;;;;;20.05;42.89;101412.34;5031631;28;20060;-63
2021/06/02 01:36:49;;;;;;;6.68;3.38;;;;;;;20.04;42.58;101411.47;5032768;28;20051;-62
2021/06/02 01:39:22;;;;;;;5.28;3.20;;;;;;;20.01;43.08;101413.56;5034871;28;20456;-64
2021/06/02 01:42:07;;;;;;;6.78;3.40;;;;;;;19.98;43.29;101414.66;5034925;28;20056;-63
2021/06/02 01:44:58;;;;;;;3.78;3.20;;;;;;;19.95;43.28;101416.75;5034925;28;20072;-62
2021/06/02 01:47:42;;;;;;;6.07;3.45;;;;;;;19.90;43.78;101420.66;5034975;28;20050;-62
2021/06/02 01:50:43;;;;;;;5.03;3.15;;;;;;;19.85;43.54;101422.88;5034855;28;20049;-64
2021/06/02 01:53:46;;;;;;;4.55;3.13;;;;;;;19.81;43.69;101425.91;5034878;28;20045;-62
2021/06/02 01:56:12;;;;;;;5.15;3.88;;;;;;;19.76;44.20;101423.63;5034709;28;20499;-62
2021/06/02 01:59:17;;;;;;;8.63;3.40;;;;;;;19.72;44.30;101424.88;5034714;28;20054;-62
2021/06/02 02:02:05;;;;;;;4.25;3.30;;;;;;;19.67;43.94;101425.25;5034553;28;20056;-61
2021/06/02 02:04:49;;;;;;;4.05;3.35;;;;;;;19.65;44.58;101427.19;5034586;28;20053;-62
2021/06/02 02:07:22;;;;;;;3.95;3.00;;;;;;;19.63;44.47;101426.50;5034566;28;20045;-69
2021/06/02 02:10:03;;;;;;;4.65;3.03;;;;;;;19.59;44.64;101430.34;5033896;28;20053;-75
2021/06/02 02:12:36;;;;;;;4.00;3.40;;;;;;;19.55;45.42;101434.25;5034415;28;20499;-62
2021/06/02 02:15:41;;;;;;;6.65;3.60;;;;;;;19.51;45.50;101438.16;5034377;28;20099;-62
2021/06/02 02:18:40;;;;;;;4.72;3.60;;;;;;;19.49;45.25;101438.28;5034245;28;20115;-62
2021/06/02 02:21:34;;;;;;;5.38;3.78;;;;;;;19.47;44.94;101439.41;5025504;28;20491;-62
2021/06/02 02:24:12;;;;;;;6.90;4.03;;;;;;;19.44;44.81;101436.97;5033846;28;20052;-62
2021/06/02 02:26:52;;;;;;;7.88;4.20;;;;;;;19.41;45.18;101430.09;5033968;28;20057;-62
2021/06/02 02:29:50;;;;;;;8.52;5.32;;;;;;;19.40;45.54;101431.91;5034280;28;20082;-62
2021/06/02 02:32:23;;;;;;;10.68;5.82;;;;;;;19.40;45.87;101429.25;5034199;28;20053;-63
2021/06/02 02:35:23;;;;;;;12.27;6.40;;;;;;;19.41;46.14;101435.41;5034026;28;20061;-62
2021/06/02 02:38:06;;;;;;;10.07;5.10;;;;;;;19.36;46.74;101432.28;5033904;28;20056;-62
2021/06/02 02:41:04;;;;;;;13.93;5.80;;;;;;;19.31;47.73;101435.34;5033899;28;20057;-62
2021/06/02 02:44:02;;;;;;;11.50;5.80;;;;;;;19.30;48.02;101438.13;5033891;28;20048;-74
2021/06/02 02:46:39;;;;;;;6.63;4.95;;;;;;;19.30;47.85;101440.78;5033443;28;20069;-62
2021/06/02 02:49:24;;;;;;;7.65;5.53;;;;;;;19.32;48.25;101445.00;5033742;28;20072;-62
2021/06/02 02:52:00;;;;;;;7.13;5.60;;;;;;;19.31;48.10;101443.34;5033654;28;20095;-62
2021/06/02 02:54:29;;;;;;;;;;;;;;;19.31;48.47;101446.00;5034253;28;20053;-63
2021/06/02 02:57:06;;;;;;;7.85;5.15;;;;;;;19.32;48.46;101436.19;5033487;28;19924;-75
2021/06/02 02:59:47;;;;;;;8.63;4.90;;;;;;;19.30;48.31;101443.44;5033614;28;20529;-75
2021/06/02 03:02:19;;;;;;;7.07;4.97;;;;;;;19.27;48.42;101441.88;5033672;28;20045;-62
2021/06/02 03:04:50;;;;;;;7.75;5.45;;;;;;;19.27;48.26;101452.53;5049289;28;20048;-62
2021/06/02 03:07:19;;;;;;;8.43;6.18;;;;;;;19.23;48.28;101445.78;5030250;28;20515;-62
2021/06/02 03:10:01;;;;;;;7.95;5.60;;;;;;;19.21;48.68;101447.72;5029988;28;20411;-62
2021/06/02 03:13:12;;;;;;;10.65;6.43;;;;;;;19.21;48.47;101450.38;5028981;28;20099;-65
2021/06/02 03:15:49;;;;;;;9.10;5.75;;;;;;;19.19;48.60;101445.19;5029781;28;20054;-63
2021/06/02 03:18:21;;;;;;;7.43;5.53;;;;;;;19.18;49.06;101458.63;5029936;28;20045;-62
2021/06/02 03:20:57;;;;;;;9.90;6.18;;;;;;;19.17;49.05;101452.47;5029786;28;20049;-62
2021/06/02 03:24:01;;;;;;;8.55;5.80;;;;;;;19.15;48.92;101464.19;5030009;28;20597;-62
2021/06/02 03:26:32;;;;;;;8.18;5.53;;;;;;;19.13;49.17;101461.63;5029561;28;20049;-62
2021/06/02 03:29:13;;;;;;;7.65;5.40;;;;;;;19.11;48.85;101465.41;5029805;28;20045;-62
2021/06/02 03:31:58;;;;;;;6.25;5.60;;;;;;;19.09;49.00;101465.53;5029696;28;20448;-62
2021/06/02 03:34:30;;;;;;;6.33;5.40;;;;;;;19.07;49.19;101465.66;5029623;28;20053;-62
2021/06/02 03:37:12;;;;;;;8.10;5.78;;;;;;;19.07;48.96;101470.13;5029584;28;20045;-63
2021/06/02 03:40:03;;;;;;;7.78;6.03;;;;;;;19.05;49.01;101470.25;5029393;28;20060;-62
2021/06/02 03:42:53;;;;;;;8.05;5.25;;;;;;;19.05;49.23;101474.75;5029494;28;20042;-62
2021/06/02 03:45:38;;;;;;;13.60;5.63;;;;;;;19.00;49.39;101469.78;5029423;28;20091;-61
2021/06/02 03:48:10;;;;;;;9.27;5.47;;;;;;;18.99;49.46;101476.06;5029581;28;20045;-62
2021/06/02 03:51:01;;;;;;;11.40;5.18;;;;;;;18.98;49.44;101476.19;5029367;28;20048;-62
2021/06/02 03:53:46;;;;;;;8.52;5.15;;;;;;;18.97;49.44;101475.34;5029226;28;20111;-62
2021/06/02 03:56:27;;;;;;;12.57;5.17;;;;;;;18.95;49.40;101471.97;5029386;28;20055;-76
2021/06/02 03:59:37;;;;;;;7.43;5.78;;;;;;;18.93;49.54;101479.22;5028405;28;20053;-62
2021/06/02 04:02:11;;;;;;;11.20;5.55;;;;;;;18.92;49.17;101472.22;5029040;28;20064;-62
2021/06/02 04:04:57;;;;;;;8.50;5.22;;;;;;;18.93;49.45;101479.22;5029038;28;20508;-62
2021/06/02 04:07:43;;;;;;;6.05;5.05;;;;;;;18.93;49.21;101474.75;5029158;28;20602;-68
2021/06/02 04:10:13;;;;;;;8.52;5.07;;;;;;;18.93;49.38;101471.22;5029159;28;20053;-63
2021/06/02 04:12:50;;;;;;;10.95;5.43;;;;;;;18.92;48.92;101469.56;5029259;28;20072;-62
2021/06/02 04:15:21;;;;;;;8.88;5.25;;;;;;;18.92;49.20;101470.41;5028914;28;20439;-63
2021/06/02 04:17:49;;;;;;;7.15;5.13;;;;;;;18.91;49.20;101479.34;5028731;28;20052;-62
2021/06/02 04:20:18;;;;;;;9.40;5.15;;;;;;;18.92;49.09;101480.22;5029163;28;20103;-62
2021/06/02 04:22:47;;;;;;;5.43;4.78;;;;;;;18.92;49.21;101480.22;5028864;28;20499;-63
2021/06/02 04:25:17;;;;;;;10.68;5.15;;;;;;;18.93;49.01;101489.84;5028852;28;20062;-63
2021/06/02 04:27:48;;;;;;;6.57;4.45;;;;;;;18.95;49.08;101489.75;5028705;28;20041;-62
2021/06/02 04:30:17;;;;;;;9.15;4.88;;;;;;;18.96;49.11;101492.28;5028837;28;20050;-62
2021/06/02 04:32:46;;;;;;;6.07;4.60;;;;;;;18.97;48.93;101488.66;5028802;28;20046;-62
2021/06/02 04:35:18;;;;;;;9.45;4.90;;;;;;;18.98;48.76;101487.69;5028543;28;20099;-62
2021/06/02 04:37:46;;;;;;;8.40;5.40;;;;;;;18.98;48.82;101493.00;5028506;28;20091;-62
2021/06/02 04:40:13;;;;;;;7.45;4.85;;;;;;;18.99;48.52;101493.84;5028706;28;20488;-62
2021/06/02 04:42:41;;;;;;;11.05;5.10;;;;;;;19.00;48.48;101490.22;5028697;28;20061;-69
2021/06/02 04:45:23;;;;;;;6.78;4.82;;;;;;;19.01;48.50;101483.94;5028918;28;20045;-65
2021/06/02 04:47:50;;;;;;;7.25;4.43;;;;;;;19.01;48.55;101489.25;5028792;28;20041;-74
2021/06/02 04:50:30;;;;;;;6.20;4.30;;;;;;;19.02;48.08;101493.59;5030103;28;20132;-62
2021/06/02 04:53:28;;;;;;;6.95;4.30;;;;;;;19.03;47.96;101496.16;5048537;28;20053;-63
2021/06/02 04:56:34;;;;;;;8.30;3.97;;;;;;;19.05;47.91;101499.50;5048331;28;20041;-62
2021/06/02 04:59:19;;;;;;;6.40;4.00;;;;;;;19.07;47.78;101494.91;5048531;28;20049;-69
2021/06/02 05:01:49;;;;;;;5.68;4.18;;;;;;;19.11;47.36;101499.97;5029276;28;20061;-63
2021/06/02 05:04:30;;;;;;;6.00;4.50;;;;;;;19.12;47.35;101502.50;5028789;28;20056;-62
2021/06/02 05:07:15;;;;;;;6.15;4.68;;;;;;;19.16;47.40;101509.28;5028459;28;20057;-63
2021/06/02 05:10:19;;;;;;;10.57;4.63;;;;;;;19.21;47.66;101511.56;5030583;28;20561;-63
2021/06/02 05:13:12;;;;;;;7.88;4.30;;;;;;;19.25;47.50;101505.03;5031859;28;20180;-74
2021/06/02 05:15:59;;;;;;;6.47;4.50;;;;;;;19.30;47.82;101499.31;5032330;28;20049;-62
2021/06/02 05:18:45;;;;;;;6.45;4.13;;;;;;;19.32;47.88;101495.56;5032016;28;20068;-62
2021/06/02 05:23:46;;;;;;;6.18;4.30;;;;;;;19.38;47.61;101497.72;5031946;28;20053;-62
2021/06/02 05:26:26;;;;;;;4.50;3.92;;;;;;;19.43;47.66;101502.69;5032038;28;20107;-62
2021/06/02 05:28:59;;;;;;;14.95;5.93;;;;;;;19.47;47.41;101512.09;5031986;28;20061;-62
2021/06/02 05:31:51;;;;;;;8.55;4.57;;;;;;;19.51;47.77;101499.38;5031991;28;20098;-62
2021/06/02 05:34:36;;;;;;;9.00;4.63;;;;;;;19.55;47.76;101508.81;5032121;28;20064;-62
2021/06/02 05:37:31;;;;;;;6.47;4.13;;;;;;;19.60;48.06;101513.75;5031944;28;20045;-62
2021/06/02 05:40:15;;;;;;;6.60;4.07;;;;;;;19.65;48.03;101512.38;5031527;28;20108;-63
2021/06/02 05:43:31;;;;;;;8.50;3.90;;;;;;;19.73;47.96;101507.28;5031565;28;20049;-62
2021/06/02 05:46:16;;;;;;;6.50;4.45;;;;;;;19.79;48.16;101510.41;5031422;28;20502;-62
2021/06/02 05:49:22;;;;;;;8.95;3.80;;;;;;;19.87;48.27;101507.97;5031265;28;20561;-63
2021/06/02 05:51:52;;;;;;;4.80;3.72;;;;;;;19.92;48.10;101512.91;5027568;28;20049;-62
2021/06/02 05:54:40;;;;;;;7.18;3.65;;;;;;;19.98;47.89;101509.72;5051265;28;20139;-62
2021/06/02 05:57:26;;;;;;;5.75;3.45;;;;;;;20.03;47.57;101519.00;5046049;28;20053;-62
2021/06/02 05:59:58;;;;;;;5.60;3.30;;;;;;;20.09;47.35;101512.34;5051185;28;20049;-62
2021/06/02 06:02:45;;;;;;;3.90;3.50;;;;;;;20.16;46.84;101512.66;5050359;28;20049;-70
2021/06/02 06:05:56;;;;;;;4.15;2.92;;;;;;;20.22;46.95;101510.28;5051214;28;20081;-62
2021/06/02 06:09:08;;;;;;;3.42;2.90;;;;;;;20.30;46.71;101512.34;5051060;28;20049;-63
2021/06/02 06:12:12;;;;;;;3.38;2.65;;;;;;;20.38;46.53;101517.00;5051149;28;20071;-65
2021/06/02 06:14:57;;;;;;;3.22;2.80;;;;;;;20.46;46.60;101511.84;5051051;28;20040;-62
2021/06/02 06:17:27;;;;;;;5.38;3.00;;;;;;;20.53;46.42;101515.66;5051193;28;20044;-63
2021/06/02 06:19:57;;;;;;;3.50;2.60;;;;;;;20.61;46.54;101516.78;5050628;28;20115;-62
2021/06/02 06:22:35;;;;;;;4.20;2.53;;;;;;;20.66;46.80;101515.44;5050263;28;20049;-62
2021/06/02 06:25:12;;;;;;;6.85;3.28;;;;;;;20.74;46.83;101520.13;5050502;28;20566;-75
2021/06/02 06:27:49;;;;;;;4.22;3.25;;;;;;;20.80;46.96;101524.94;5050933;28;20098;-62
2021/06/02 06:30:29;;;;;;;4.93;3.65;;;;;;;20.86;47.17;101515.53;5035233;28;20045;-62
2021/06/02 06:32:57;;;;;;;5.45;3.35;;;;;;;20.94;47.12;101534.38;5038900;28;20055;-62
2021/06/02 06:35:27;;;;;;;5.85;3.35;;;;;;;21.01;47.73;101522.19;5050487;28;20045;-62
2021/06/02 06:37:58;;;;;;;4.90;3.78;;;;;;;21.09;47.83;101534.00;5050323;28;20045;-62
2021/06/02 06:40:27;;;;;;;3.70;3.13;;;;;;;21.15;47.94;101528.97;5032964;28;20052;-65
2021/06/02 06:42:58;;;;;;;5.13;4.35;;;;;;;21.21;47.87;101539.06;5050754;28;20060;-62
2021/06/02 06:45:33;;;;;;;4.47;2.92;;;;;;;21.27;47.77;101540.38;5050460;28;20041;-65
2021/06/02 06:48:08;;;;;;;3.72;3.28;;;;;;;21.32;47.54;101543.47;5049030;28;20049;-62
2021/06/02 06:50:35;;;;;;;4.35;3.45;;;;;;;21.39;47.31;101548.25;5050203;28;20056;-62
2021/06/02 06:53:04;;;;;;;3.92;2.95;;;;;;;21.43;47.02;101545.16;5050204;28;20072;-62
2021/06/02 06:55:32;;;;;;;6.28;3.05;;;;;;;21.49;46.66;101554.44;5050421;28;20049;-62
2021/06/02 06:58:00;;;;;;;5.47;2.70;;;;;;;21.56;46.71;101558.28;5050174;28;20044;-62
2021/06/02 07:00:27;;;;;;;4.07;2.58;;;;;;;21.62;46.65;101556.88;5050072;28;20047;-61
2021/06/02 07:02:55;;;;;;;3.15;2.47;;;;;;;21.66;45.91;101556.47;5049932;28;20051;-75
2021/06/02 07:05:23;;;;;;;2.88;2.28;;;;;;;21.73;46.12;101556.75;5039844;28;20057;-62
2021/06/02 07:07:51;;;;;;;2.97;2.63;;;;;;;21.79;45.59;101563.38;5030062;28;20482;-63
2021/06/02 07:10:21;;;;;;;3.25;2.90;;;;;;;21.85;45.53;101562.78;5038230;28;20052;-68
2021/06/02 07:12:49;;;;;;;4.63;2.70;;;;;;;21.91;45.89;101564.06;5045965;28;20099;-67
2021/06/02 07:15:18;;;;;;;5.65;2.80;;;;;;;22.01;45.45;101554.19;5048256;28;20045;-68
2021/06/02 07:17:51;;;;;;;3.25;2.85;;;;;;;22.11;45.79;101557.69;5049617;28;20051;-68
2021/06/02 07:20:22;;;;;;;3.20;2.50;;;;;;;22.14;45.47;101560.09;5049807;28;20045;-68
2021/06/02 07:22:51;;;;;;;5.07;2.88;;;;;;;22.12;45.20;101550.53;5049005;28;20049;-68
2021/06/02 07:25:21;;;;;;;3.22;2.90;;;;;;;22.06;45.45;101553.78;5049880;28;20053;-67
2021/06/02 07:27:49;;;;;;;5.30;3.17;;;;;;;21.98;45.66;101554.50;5049193;28;20045;-67
2021/06/02 07:30:18;;;;;;;6.38;3.58;;;;;;;22.08;45.26;101555.31;5049073;28;20506;-68
2021/06/02 07:32:45;;;;;;;4.38;2.72;;;;;;;22.18;45.46;101556.16;5048002;28;20457;-68
2021/06/02 07:35:12;;;;;;;3.97;2.55;;;;;;;22.26;45.57;101562.59;5048942;28;20060;-67
2021/06/02 07:37:39;;;;;;;3.10;2.50;;;;;;;22.25;45.35;101564.44;5048601;28;20045;-68
2021/06/02 07:40:07;;;;;;;2.92;2.47;;;;;;;22.38;45.34;101560.66;5048775;28;20051;-77
2021/06/02 07:42:36;;;;;;;4.30;2.97;;;;;;;22.52;44.90;101557.50;5046001;28;20041;-68
2021/06/02 07:45:05;;;;;;;3.20;2.78;;;;;;;22.66;44.76;101562.41;5048375;28;20037;-70
2021/06/02 07:47:31;;;;;;;5.25;3.00;;;;;;;22.77;44.91;101560.53;5047503;28;20048;-69
2021/06/02 07:49:58;;;;;;;3.33;2.88;;;;;;;22.76;44.38;101559.66;5048080;28;20044;-75
2021/06/02 07:52:26;;;;;;;4.53;2.75;;;;;;;22.77;44.40;101565.88;5048150;28;20577;-69
2021/06/02 07:54:53;;;;;;;6.25;3.53;;;;;;;22.82;43.83;101553.72;5048562;28;20048;-70
2021/06/02 07:57:20;;;;;;;7.18;3.08;;;;;;;22.92;43.88;101560.84;5048543;28;20040;-69
2021/06/02 07:59:46;;;;;;;3.92;2.85;;;;;;;23.03;43.68;101566.00;5049254;28;20045;-78
2021/06/02 08:02:13;;;;;;;4.18;3.58;;;;;;;23.14;43.31;101563.13;5048962;28;20080;-67
2021/06/02 08:04:40;;;;;;;6.40;2.97;;;;;;;23.20;43.75;101559.06;5045329;28;20060;-67
2021/06/02 08:07:08;;;;;;;7.35;4.03;;;;;;;23.14;43.77;101559.63;5048179;28;20044;-71
2021/06/02 08:09:35;;;;;;;4.35;3.60;;;;;;;23.06;43.97;101559.53;5048033;28;20487;-68
2021/06/02 08:12:06;;;;;;;4.30;3.72;;;;;;;23.05;43.96;101557.84;5048330;28;20133;-68
2021/06/02 08:14:33;;;;;;;4.82;2.80;;;;;;;23.13;43.83;101549.91;5044113;28;20075;-67
2021/06/02 08:17:00;;;;;;;4.88;3.45;;;;;;;23.22;43.56;101564.25;5048376;28;20045;-66
2021/06/02 08:19:26;;;;;;;5.63;4.65;;;;;;;23.31;43.75;101553.50;5048439;28;20052;-79
2021/06/02 08:21:53;;;;;;;6.07;3.72;;;;;;;23.41;43.81;101552.59;5048049;28;20056;-75
2021/06/02 08:24:22;;;;;;;8.20;4.10;;;;;;;23.48;43.03;101551.81;5048176;28;20052;-69
2021/06/02 08:26:48;;;;;;;5.28;3.60;;;;;;;23.57;43.16;101552.75;5047648;28;20561;-68
2021/06/02 08:29:15;;;;;;;4.63;3.53;;;;;;;23.68;43.27;101554.38;5047639;28;20091;-68
2021/06/02 08:31:42;;;;;;;3.97;3.50;;;;;;;23.74;42.40;101553.72;5046144;28;20045;-69
2021/06/02 08:34:09;;;;;;;5.05;3.00;;;;;;;23.83;41.55;101548.44;5047746;28;20052;-69
2021/06/02 08:36:36;;;;;;;4.72;3.75;;;;;;;23.89;41.62;101554.03;5048082;28;20119;-68
2021/06/02 08:39:06;;;;;;;5.13;3.55;;;;;;;23.96;42.18;101549.78;5046537;28;20555;-70
2021/06/02 08:41:32;;;;;;;3.95;2.67;;;;;;;24.00;41.13;101552.13;5044335;28;20467;-69
2021/06/02 08:43:59;;;;;;;5.25;2.63;;;;;;;24.07;40.95;101547.84;5049199;28;20547;-67
2021/06/02 08:46:26;;;;;;;4.93;3.33;;;;;;;24.08;39.42;101550.34;5052442;28;20045;-67
2021/06/02 08:49:08;;;;;;;3.53;2.08;;;;;;;24.12;39.11;101546.38;5032695;28;20052;-67
2021/06/02 08:51:36;;;;;;;4.80;2.60;;;;;;;24.18;38.80;101550.25;5032562;28;20091;-70
2021/06/02 08:54:04;;;;;;;2.20;2.00;;;;;;;24.23;38.01;101547.13;5032576;28;20045;-69
2021/06/02 08:56:39;;;;;;;2.22;2.03;;;;;;;24.29;37.86;101547.31;5032530;28;20450;-68
2021/06/02 08:59:06;;;;;;;4.05;2.17;;;;;;;24.36;36.66;101558.25;5038295;28;20047;-67
2021/06/02 09:01:34;;;;;;;3.28;2.00;;;;;;;24.42;36.39;101557.63;5051716;28;20045;-67
2021/06/02 09:04:06;;;;;;;4.90;2.08;;;;;;;24.49;36.33;101546.25;5051722;28;20037;-67
2021/06/02 09:06:36;;;;;;;2.20;1.70;;;;;;;24.56;36.16;101548.16;5051690;28;20475;-67
2021/06/02 09:09:04;;;;;;;3.33;1.50;;;;;;;24.70;36.68;101548.59;5051170;28;20083;-67
2021/06/02 09:11:43;;;;;;;2.88;1.70;;;;;;;24.81;36.28;101551.00;5049892;28;20048;-67
2021/06/02 09:14:28;;;;;;;2.30;1.90;;;;;;;24.93;35.83;101552.38;5049451;28;20503;-68
2021/06/02 09:16:58;;;;;;;1.60;1.35;;;;;;;25.07;35.77;101542.03;5048845;28;20041;-67
2021/06/02 09:19:35;;;;;;;2.30;1.60;;;;;;;25.19;35.47;101551.47;5049313;28;20047;-69
2021/06/02 09:22:10;;;;;;;2.35;1.73;;;;;;;25.31;35.03;101548.47;5050766;28;20193;-67
2021/06/02 09:24:55;;;;;;;2.30;1.70;;;;;;;25.36;34.06;101559.59;5051239;28;20041;-68
2021/06/02 09:27:56;;;;;;;1.63;1.52;;;;;;;25.42;33.74;101558.94;5050172;28;20406;-67
2021/06/02 09:30:29;;;;;;;1.50;1.40;;;;;;;25.52;33.71;101558.75;5049790;28;20060;-69
2021/06/02 09:32:58;;;;;;;4.03;1.63;;;;;;;25.60;33.52;101553.41;5050420;28;20060;-69
2021/06/02 09:35:36;;;;;;;3.05;1.52;;;;;;;25.72;33.32;101560.13;5049614;28;20049;-68
2021/06/02 09:38:05;;;;;;;1.85;1.45;;;;;;;25.79;32.64;101557.63;5050868;28;20470;-68
2021/06/02 09:40:37;;;;;;;1.80;1.65;;;;;;;25.87;32.42;101568.38;5050692;28;20045;-67
2021/06/02 09:43:05;;;;;;;7.15;2.10;;;;;;;25.98;32.51;101558.28;5050803;28;20041;-68
2021/06/02 09:45:33;;;;;;;1.98;1.52;;;;;;;26.08;32.04;101562.50;5050190;28;20212;-68
2021/06/02 09:48:04;;;;;;;1.48;1.30;;;;;;;26.13;30.54;101551.25;5049985;28;20041;-68
2021/06/02 09:50:33;;;;;;;3.03;1.30;;;;;;;26.14;30.00;101555.59;5049983;28;20049;-72
2021/06/02 09:53:05;;;;;;;1.58;1.30;;;;;;;26.31;30.68;101559.13;5049141;28;20132;-71
2021/06/02 09:55:41;;;;;;;2.60;1.90;;;;;;;26.40;30.60;101557.25;5048986;28;20045;-69
2021/06/02 09:58:07;;;;;;;2.50;1.70;;;;;;;26.46;31.14;101561.94;5050369;28;20111;-68
2021/06/02 10:00:39;;;;;;;1.73;1.50;;;;;;;26.59;31.00;101557.84;5050194;28;20051;-71
2021/06/02 10:03:17;;;;;;;3.05;1.60;;;;;;;26.72;30.65;101553.59;5049403;28;20045;-70
2021/06/02 10:05:48;;;;;;;4.13;1.80;;;;;;;26.83;30.90;101552.44;5049947;28;20060;-71
2021/06/02 10:08:32;;;;;;;2.03;1.70;;;;;;;26.95;30.51;101547.47;5031889;28;20045;-71
2021/06/02 10:11:12;;;;;;;2.92;1.58;;;;;;;27.04;29.70;101554.50;5047714;28;20483;-69
2021/06/02 10:13:39;;;;;;;1.88;1.65;;;;;;;27.15;29.54;101555.16;5047618;28;20053;-68
2021/06/02 10:16:10;;;;;;;2.60;1.58;;;;;;;27.19;29.15;101553.78;5050193;28;20048;-68
2021/06/02 10:18:39;;;;;;;3.38;1.90;;;;;;;27.27;29.55;101563.66;5049040;28;20483;-67
2021/06/02 10:21:13;;;;;;;2.03;1.70;;;;;;;27.36;29.32;101562.56;5049378;28;20045;-70
2021/06/02 10:23:45;;;;;;;2.00;1.50;;;;;;;27.43;29.33;101560.88;5049084;28;20087;-68
2021/06/02 10:26:17;;;;;;;2.20;1.48;;;;;;;27.54;29.21;101563.16;5047518;28;20515;-68
2021/06/02 10:28:47;;;;;;;2.92;2.08;;;;;;;27.63;28.97;101566.66;5047051;28;20041;-68
2021/06/02 10:31:15;;;;;;;3.25;1.63;;;;;;;27.64;29.30;101554.84;5047764;28;20068;-68
2021/06/02 10:33:41;;;;;;;3.63;1.90;;;;;;;27.79;29.60;101556.75;5049151;28;20061;-71
2021/06/02 10:36:09;;;;;;;2.90;1.73;;;;;;;27.85;29.46;101556.03;5047278;28;20107;-69
2021/06/02 10:39:08;;;;;;;2.97;2.13;;;;;;;27.94;29.61;101554.91;5049119;28;20037;-70
2021/06/02 10:42:04;;;;;;;1.75;1.42;;;;;;;28.02;28.95;101554.00;5048025;28;20047;-69
2021/06/02 10:44:46;;;;;;;3.45;2.75;;;;;;;28.13;29.15;101548.19;5046426;28;20044;-68
2021/06/02 10:47:12;;;;;;;2.95;2.20;;;;;;;28.25;29.40;101554.00;5049315;28;20045;-67
2021/06/02 10:49:40;;;;;;;4.00;2.10;;;;;;;28.32;28.98;101541.44;5049030;28;20040;-66
2021/06/02 10:52:07;;;;;;;3.30;2.40;;;;;;;28.32;28.16;101540.59;5049498;28;20053;-68
2021/06/02 10:54:37;;;;;;;3.58;2.28;;;;;;;28.38;28.52;101542.56;5041831;28;20048;-66
2021/06/02 10:57:09;;;;;;;3.25;1.98;;;;;;;28.46;28.58;101547.84;5045671;28;20041;-67
2021/06/02 10:59:38;;;;;;;2.10;1.65;;;;;;;28.55;28.55;101550.47;5046765;28;20041;-67
2021/06/02 11:02:15;;;;;;;3.15;2.10;;;;;;;28.60;28.33;101553.44;5046748;28;20110;-68
2021/06/02 11:04:58;;;;;;;2.60;2.05;;;;;;;28.50;27.35;101546.44;5048040;28;20053;-65
2021/06/02 11:07:27;;;;;;;4.15;2.42;;;;;;;28.48;27.71;101544.97;5048038;28;20045;-66
2021/06/02 11:10:30;;;;;;;2.35;2.00;;;;;;;28.52;28.75;101541.72;5047677;28;20630;-67
2021/06/02 11:12:57;;;;;;;2.55;1.73;;;;;;;28.61;29.89;101545.16;5048189;28;20049;-68
2021/06/02 11:15:24;;;;;;;3.33;2.53;;;;;;;28.68;29.52;101545.28;5048499;28;20182;-67
2021/06/02 11:18:05;;;;;;;3.38;1.95;;;;;;;28.70;28.57;101540.53;5048216;28;20140;-67
2021/06/02 11:20:45;;;;;;;2.90;2.10;;;;;;;28.74;28.80;101543.69;5042231;28;20045;-67
2021/06/02 11:23:21;;;;;;;2.67;2.30;;;;;;;28.73;28.48;101542.00;5037072;28;20053;-68
2021/06/02 11:25:49;;;;;;;3.92;1.92;;;;;;;28.82;28.42;101540.88;5048467;28;20518;-68
2021/06/02 11:28:45;;;;;;;2.50;2.30;;;;;;;28.93;28.84;101543.09;5049585;28;20051;-68
2021/06/02 11:31:21;;;;;;;3.55;2.38;;;;;;;29.03;28.47;101540.09;5031859;28;20086;-68
2021/06/02 11:33:49;;;;;;;3.05;2.30;;;;;;;29.08;28.00;101543.06;5049396;28;20409;-66
2021/06/02 11:36:17;;;;;;;3.88;2.50;;;;;;;29.14;27.80;101541.44;5049267;28;20580;-67
2021/06/02 11:38:44;;;;;;;2.30;2.10;;;;;;;29.20;27.94;101546.09;5049187;28;20045;-72
2021/06/02 11:41:13;;;;;;;3.92;1.98;;;;;;;29.29;28.01;101533.31;5049290;28;20048;-68
2021/06/02 11:43:58;;;;;;;2.03;1.70;;;;;;;29.38;28.31;101540.31;5048942;28;20056;-69
2021/06/02 11:46:49;;;;;;;3.40;1.90;;;;;;;29.47;28.12;101536.44;5048927;28;20069;-70
2021/06/02 11:49:26;;;;;;;2.15;1.70;;;;;;;29.53;27.80;101534.81;5037995;28;20134;-70
2021/06/02 11:52:04;;;;;;;4.82;1.98;;;;;;;29.61;27.50;101531.13;5029021;28;20832;-69
2021/06/02 11:54:53;;;;;;;2.30;2.10;;;;;;;29.67;27.32;101538.47;5029112;28;20046;-68
2021/06/02 11:57:27;;;;;;;2.50;1.80;;;;;;;29.72;26.94;101529.78;5029059;28;20136;-67
2021/06/02 12:00:00;;;;;;;2.35;2.00;;;;;;;29.76;26.83;101539.16;5028622;28;20069;-67
2021/06/02 12:02:27;;;;;;;4.30;1.90;;;;;;;29.79;27.12;101536.09;5039694;28;20232;-67
2021/06/02 12:05:12;;;;;;;2.88;2.08;;;;;;;29.83;27.20;101531.97;5048912;28;20055;-68
2021/06/02 12:07:46;;;;;;;3.25;1.80;;;;;;;29.88;26.79;101534.09;5048532;28;20163;-70